createdAt,value
2022-08-25T16:05:53.509Z,54.56
2022-08-25T16:08:23.559Z,54.85
2022-08-25T16:10:52.636Z,54.94
2022-08-25T16:13:23.644Z,54.68
2022-08-25T16:15:54.159Z,55.14
2022-08-25T16:18:25.761Z,54.41
2022-08-25T16:20:54.821Z,54.57
2022-08-25T16:23:24.611Z,54.68
2022-08-25T16:25:52.883Z,54.86
2022-08-25T16:28:24.544Z,55.28
2022-08-25T16:30:53.978Z,55.14
2022-08-25T16:33:22.030Z,54.97
2022-08-25T16:35:50.134Z,54.98
2022-08-25T16:38:18.235Z,55.36
2022-08-25T16:40:47.239Z,55.28
2022-08-25T16:43:15.206Z,55.21
2022-08-25T16:45:43.242Z,55.50
2022-08-25T16:48:11.290Z,55.20
2022-08-25T16:50:40.342Z,55.20
2022-08-25T16:53:26.378Z,55.32
2022-08-25T16:56:03.942Z,55.60
2022-08-25T16:58:32.493Z,55.57
2022-08-25T17:01:13.258Z,55.38
2022-08-25T17:03:44.200Z,55.58
2022-08-25T17:06:12.646Z,55.79
2022-08-25T17:08:44.684Z,55.39
2022-08-25T17:11:16.781Z,55.33
2022-08-25T17:13:50.493Z,55.38
2022-08-25T17:16:18.600Z,55.44
2022-08-25T17:18:48.103Z,55.75
2022-08-25T17:21:24.579Z,55.75
2022-08-25T17:23:53.960Z,55.55
2022-08-25T17:26:27.697Z,55.87
2022-08-25T17:29:01.577Z,55.76
2022-08-25T17:31:30.785Z,56.10
2022-08-25T17:33:59.127Z,55.98
2022-08-25T17:36:27.507Z,56.01
2022-08-25T17:38:57.024Z,55.78
2022-08-25T17:41:25.290Z,55.75
2022-08-25T17:43:53.314Z,55.88
2022-08-25T17:46:21.816Z,56.08
2022-08-25T17:48:49.358Z,55.78
2022-08-25T17:51:17.477Z,56.08
2022-08-25T17:53:45.517Z,55.74
2022-08-25T17:56:16.559Z,56.15
2022-08-25T17:58:45.589Z,56.29
2022-08-25T18:01:22.398Z,56.14
2022-08-25T18:03:50.687Z,56.04
2022-08-25T18:06:18.642Z,56.46
2022-08-25T18:08:51.680Z,56.19
2022-08-25T18:11:25.813Z,56.40
2022-08-25T18:13:55.839Z,56.18
2022-08-25T18:16:23.923Z,56.44
2022-08-25T18:18:52.968Z,56.51
2022-08-25T18:21:22.411Z,56.12
2022-08-25T18:23:52.419Z,56.34
2022-08-25T18:26:25.612Z,56.16
2022-08-25T18:28:54.199Z,56.12
2022-08-25T18:31:23.402Z,56.24
2022-08-25T18:33:52.327Z,56.62
2022-08-25T18:36:23.711Z,56.71
2022-08-25T18:39:10.337Z,56.67
2022-08-25T18:41:40.000Z,56.71
2022-08-25T18:44:08.430Z,56.87
2022-08-25T18:46:39.545Z,56.74
2022-08-25T18:49:07.518Z,56.84
2022-08-25T18:51:36.566Z,56.70
2022-08-25T18:54:04.632Z,56.81
2022-08-25T18:56:32.662Z,56.81
2022-08-25T18:59:00.708Z,56.76
2022-08-25T19:01:29.091Z,56.63
2022-08-25T19:03:57.803Z,56.77
2022-08-25T19:06:25.864Z,57.09
2022-08-25T19:08:53.967Z,56.83
2022-08-25T19:11:22.164Z,56.91
2022-08-25T19:13:51.017Z,56.94
2022-08-25T19:16:31.094Z,56.97
2022-08-25T19:19:01.086Z,56.86
2022-08-25T19:21:33.382Z,57.05
2022-08-25T19:24:01.192Z,56.93
2022-08-25T19:26:31.920Z,57.04
2022-08-25T19:29:01.283Z,57.24
2022-08-25T19:31:33.000Z,57.08
2022-08-25T19:34:23.215Z,57.07
2022-08-25T19:36:51.645Z,57.14
2022-08-25T19:39:19.224Z,57.22
2022-08-25T19:41:47.530Z,57.10
2022-08-25T19:44:16.591Z,57.20
2022-08-25T19:46:48.730Z,57.37
2022-08-25T19:49:22.671Z,57.26
2022-08-25T19:51:52.223Z,57.07
2022-08-25T19:54:29.104Z,57.38
2022-08-25T19:56:56.843Z,57.50
2022-08-25T19:59:36.619Z,57.21
2022-08-25T20:02:12.932Z,57.49
2022-08-25T20:04:49.826Z,57.31
2022-08-25T20:07:22.079Z,57.18
2022-08-25T20:09:55.387Z,57.19
2022-08-25T20:12:26.088Z,57.19
2022-08-25T20:14:57.212Z,56.94
2022-08-25T20:17:28.451Z,57.10
2022-08-25T20:19:58.411Z,56.97
2022-08-25T20:22:31.395Z,57.38
2022-08-25T20:25:03.403Z,57.00
2022-08-25T20:27:47.373Z,57.13
2022-08-25T20:30:22.021Z,57.30
2022-08-25T20:32:50.693Z,57.12
2022-08-25T20:35:19.869Z,57.46
2022-08-25T20:37:54.644Z,57.27
2022-08-25T20:40:29.468Z,57.33
2022-08-25T20:42:59.584Z,57.57
2022-08-25T20:45:30.699Z,57.30
2022-08-25T20:48:01.473Z,57.58
2022-08-25T20:50:29.789Z,57.56
2022-08-25T20:53:00.933Z,57.77
2022-08-25T20:55:30.869Z,57.44
2022-08-25T20:58:01.118Z,57.66
2022-08-25T21:00:29.986Z,57.63
2022-08-25T21:02:58.026Z,57.80
2022-08-25T21:05:29.084Z,57.72
2022-08-25T21:07:57.114Z,57.80
2022-08-25T21:10:25.136Z,57.82
2022-08-25T21:12:54.280Z,57.83
2022-08-25T21:15:26.580Z,57.88
2022-08-25T21:17:56.987Z,57.83
2022-08-25T21:20:29.498Z,57.88
2022-08-25T21:23:01.367Z,57.88
2022-08-25T21:25:31.427Z,57.88
2022-08-25T21:28:00.329Z,57.78
2022-08-25T21:30:33.090Z,57.80
2022-08-25T21:33:00.760Z,58.04
2022-08-25T21:35:32.598Z,57.70
2022-08-25T21:38:04.529Z,57.79
2022-08-25T21:40:37.728Z,57.82
2022-08-25T21:43:06.881Z,57.52
2022-08-25T21:45:46.851Z,58.01
2022-08-25T21:48:19.586Z,57.81
2022-08-25T21:50:50.134Z,57.90
2022-08-25T21:53:20.055Z,57.79
2022-08-25T21:55:47.977Z,57.79
2022-08-25T21:58:16.026Z,57.80
2022-08-25T22:00:45.965Z,57.87
2022-08-25T22:03:16.188Z,57.90
2022-08-25T22:05:46.086Z,57.74
2022-08-25T22:08:17.231Z,57.86
2022-08-25T22:10:47.942Z,57.77
2022-08-25T22:13:17.301Z,57.76
2022-08-25T22:15:52.191Z,57.90
2022-08-25T22:18:23.034Z,57.80
2022-08-25T22:20:55.494Z,57.83
2022-08-25T22:23:28.357Z,57.43
2022-08-25T22:25:59.825Z,57.75
2022-08-25T22:28:31.457Z,57.74
2022-08-25T22:31:04.933Z,57.65
2022-08-25T22:33:37.568Z,57.70
2022-08-25T22:36:28.327Z,57.84
2022-08-25T22:38:59.949Z,57.60
2022-08-25T22:41:30.815Z,57.64
2022-08-25T22:44:04.892Z,57.55
2022-08-25T22:46:33.936Z,57.80
2022-08-25T22:49:03.987Z,57.69
2022-08-25T22:51:32.240Z,57.55
2022-08-25T22:54:04.038Z,57.77
2022-08-25T22:56:35.075Z,57.51
2022-08-25T22:59:09.384Z,57.57
2022-08-25T23:01:39.878Z,57.83
2022-08-25T23:04:14.795Z,57.64
2022-08-25T23:06:47.605Z,57.48
2022-08-25T23:09:19.597Z,57.35
2022-08-25T23:11:51.276Z,57.48
2022-08-25T23:14:23.553Z,57.41
2022-08-25T23:16:52.454Z,57.44
2022-08-25T23:19:28.099Z,57.34
2022-08-25T23:22:16.380Z,57.30
2022-08-25T23:24:48.719Z,57.44
2022-08-25T23:27:20.120Z,57.26
2022-08-25T23:29:51.491Z,57.39
2022-08-25T23:32:20.738Z,57.58
2022-08-25T23:34:48.787Z,57.56
2022-08-25T23:37:18.678Z,57.52
2022-08-25T23:39:50.264Z,57.56
2022-08-25T23:42:18.948Z,57.59
2022-08-25T23:44:47.000Z,57.37
2022-08-25T23:47:15.501Z,57.38
2022-08-25T23:49:45.067Z,57.43
2022-08-25T23:52:14.158Z,57.63
2022-08-25T23:54:46.397Z,57.61
2022-08-25T23:57:15.216Z,57.31
2022-08-25T23:59:46.301Z,57.43
